sensor_id;sensor_type;location;lat;lon;timestamp;pressure;altitude;pressure_sealevel;temperature;humidity
7474;BME280;3778;42.572;23.426;2023-03-18T00:00:41;95654.00;;;-146.70;80.99
7474;BME280;3778;42.572;23.426;2023-03-18T00:03:09;95591.47;;;-146.70;80.90
7474;BME280;3778;42.572;23.426;2023-03-18T00:05:36;95679.00;;;-146.70;80.89
7474;BME280;3778;42.572;23.426;2023-03-18T00:08:04;95674.84;;;-146.70;80.88
7474;BME280;3778;42.572;23.426;2023-03-18T00:10:32;95626.91;;;-146.70;80.67
7474;BME280;3778;42.572;23.426;2023-03-18T00:12:59;95666.50;;;-146.70;80.23
7474;BME280;3778;42.572;23.426;2023-03-18T00:15:27;95658.16;;;-146.70;80.05
7474;BME280;3778;42.572;23.426;2023-03-18T00:17:54;95618.56;;;-146.70;79.95
7474;BME280;3778;42.572;23.426;2023-03-18T00:20:23;95637.31;;;-146.70;80.14
7474;BME280;3778;42.572;23.426;2023-03-18T00:23:03;95672.75;;;-146.70;80.11
7474;BME280;3778;42.572;23.426;2023-03-18T00:25:30;95614.41;;;-146.70;79.80
7474;BME280;3778;42.572;23.426;2023-03-18T00:27:57;95666.50;;;-146.70;79.80
7474;BME280;3778;42.572;23.426;2023-03-18T00:30:23;95654.00;;;-146.70;79.71
7474;BME280;3778;42.572;23.426;2023-03-18T00:32:51;95654.00;;;-146.70;80.11
7474;BME280;3778;42.572;23.426;2023-03-18T00:35:18;95658.16;;;-146.70;80.41
7474;BME280;3778;42.572;23.426;2023-03-18T00:37:45;95687.34;;;-146.70;80.14
7474;BME280;3778;42.572;23.426;2023-03-18T00:40:13;95599.81;;;-146.70;79.93
7474;BME280;3778;42.572;23.426;2023-03-18T00:42:45;95658.16;;;-146.70;80.08
7474;BME280;3778;42.572;23.426;2023-03-18T00:45:15;95649.84;;;-146.70;80.51
7474;BME280;3778;42.572;23.426;2023-03-18T00:47:43;95637.31;;;-146.70;80.67
7474;BME280;3778;42.572;23.426;2023-03-18T00:50:11;95693.59;;;-146.70;80.71
7474;BME280;3778;42.572;23.426;2023-03-18T00:52:38;95620.66;;;-146.70;81.07
7474;BME280;3778;42.572;23.426;2023-03-18T00:55:06;95689.44;;;-146.70;80.61
7474;BME280;3778;42.572;23.426;2023-03-18T00:57:33;95626.91;;;-146.70;80.61
7474;BME280;3778;42.572;23.426;2023-03-18T00:59:59;95645.66;;;-146.70;80.98
7474;BME280;3778;42.572;23.426;2023-03-18T01:02:27;95662.34;;;-146.70;81.09
7474;BME280;3778;42.572;23.426;2023-03-18T01:04:54;95631.06;;;-146.70;80.98
7474;BME280;3778;42.572;23.426;2023-03-18T01:07:22;95718.63;;;-146.70;80.75
7474;BME280;3778;42.572;23.426;2023-03-18T01:09:49;95641.50;;;-146.70;80.76
7474;BME280;3778;42.572;23.426;2023-03-18T01:12:16;95637.31;;;-146.70;80.65
7474;BME280;3778;42.572;23.426;2023-03-18T01:14:43;95691.53;;;-146.70;80.77
7474;BME280;3778;42.572;23.426;2023-03-18T01:17:10;95633.16;;;-146.70;80.92
7474;BME280;3778;42.572;23.426;2023-03-18T01:19:37;95670.69;;;-146.70;81.20
7474;BME280;3778;42.572;23.426;2023-03-18T01:22:04;95674.84;;;-146.70;81.50
7474;BME280;3778;42.572;23.426;2023-03-18T01:24:33;95708.19;;;-146.70;81.50
7474;BME280;3778;42.572;23.426;2023-03-18T01:27:00;95704.03;;;-146.70;81.74
7474;BME280;3778;42.572;23.426;2023-03-18T01:29:27;95679.00;;;-146.70;81.58
7474;BME280;3778;42.572;23.426;2023-03-18T01:31:55;95595.63;;;-146.70;81.82
7474;BME280;3778;42.572;23.426;2023-03-18T01:34:21;95674.84;;;-146.70;81.88
7474;BME280;3778;42.572;23.426;2023-03-18T01:36:49;95658.16;;;-146.70;81.93
7474;BME280;3778;42.572;23.426;2023-03-18T01:39:16;95691.53;;;-146.70;82.10
7474;BME280;3778;42.572;23.426;2023-03-18T01:41:44;95687.34;;;-146.70;82.20
7474;BME280;3778;42.572;23.426;2023-03-18T01:44:13;95689.44;;;-146.70;82.45
7474;BME280;3778;42.572;23.426;2023-03-18T01:46:42;95683.19;;;-146.70;82.38
7474;BME280;3778;42.572;23.426;2023-03-18T01:49:11;95697.78;;;-146.70;82.23
7474;BME280;3778;42.572;23.426;2023-03-18T01:51:41;95645.66;;;-146.70;82.36
7474;BME280;3778;42.572;23.426;2023-03-18T01:54:09;95704.03;;;-146.70;82.18
7474;BME280;3778;42.572;23.426;2023-03-18T01:56:39;95626.91;;;-146.70;82.37
7474;BME280;3778;42.572;23.426;2023-03-18T01:59:08;95645.66;;;-146.70;82.35
7474;BME280;3778;42.572;23.426;2023-03-18T02:01:39;95641.50;;;-146.70;82.47
7474;BME280;3778;42.572;23.426;2023-03-18T02:04:09;95616.47;;;-146.70;82.54
7474;BME280;3778;42.572;23.426;2023-03-18T02:06:36;95683.19;;;-146.70;82.87
7474;BME280;3778;42.572;23.426;2023-03-18T02:09:04;95704.03;;;-146.70;82.76
7474;BME280;3778;42.572;23.426;2023-03-18T02:11:33;95614.41;;;-146.70;83.11
7474;BME280;3778;42.572;23.426;2023-03-18T02:14:02;95649.84;;;-146.70;83.17
7474;BME280;3778;42.572;23.426;2023-03-18T02:16:33;95720.72;;;-146.70;83.20
7474;BME280;3778;42.572;23.426;2023-03-18T02:19:12;95687.34;;;-146.70;83.23
7474;BME280;3778;42.572;23.426;2023-03-18T02:21:51;95685.28;;;-146.70;83.16
7474;BME280;3778;42.572;23.426;2023-03-18T02:24:27;95674.84;;;-146.70;83.18
7474;BME280;3778;42.572;23.426;2023-03-18T02:27:00;95899.97;;;-146.70;83.40
7474;BME280;3778;42.572;23.426;2023-03-18T02:29:30;95710.28;;;-146.70;83.34
7474;BME280;3778;42.572;23.426;2023-03-18T02:32:00;95697.78;;;-146.70;83.49
7474;BME280;3778;42.572;23.426;2023-03-18T02:34:30;95710.28;;;-146.70;83.41
7474;BME280;3778;42.572;23.426;2023-03-18T02:36:58;95681.09;;;-146.70;83.55
7474;BME280;3778;42.572;23.426;2023-03-18T02:39:25;95714.44;;;-146.70;83.78
7474;BME280;3778;42.572;23.426;2023-03-18T02:41:54;95683.19;;;-146.70;83.67
7474;BME280;3778;42.572;23.426;2023-03-18T02:44:21;95716.53;;;-146.70;83.60
7474;BME280;3778;42.572;23.426;2023-03-18T02:46:52;95735.28;;;-146.70;83.72
7474;BME280;3778;42.572;23.426;2023-03-18T02:49:21;95683.19;;;-146.70;83.86
7474;BME280;3778;42.572;23.426;2023-03-18T02:51:50;95724.88;;;-146.70;83.76
7474;BME280;3778;42.572;23.426;2023-03-18T02:54:20;95697.78;;;-146.70;83.98
7474;BME280;3778;42.572;23.426;2023-03-18T02:56:47;95712.38;;;-146.70;83.97
7474;BME280;3778;42.572;23.426;2023-03-18T02:59:14;95674.84;;;-146.70;84.36
7474;BME280;3778;42.572;23.426;2023-03-18T03:01:43;95668.59;;;-146.70;84.43
7474;BME280;3778;42.572;23.426;2023-03-18T03:04:12;95720.72;;;-146.70;84.49
7474;BME280;3778;42.572;23.426;2023-03-18T03:06:40;95729.03;;;-146.70;84.81
7474;BME280;3778;42.572;23.426;2023-03-18T03:09:08;95743.63;;;-146.70;84.92
7474;BME280;3778;42.572;23.426;2023-03-18T03:11:35;95699.84;;;-146.70;85.14
7474;BME280;3778;42.572;23.426;2023-03-18T03:14:02;95691.53;;;-146.70;85.65
7474;BME280;3778;42.572;23.426;2023-03-18T03:16:29;95699.84;;;-146.70;85.76
7474;BME280;3778;42.572;23.426;2023-03-18T03:18:56;95691.53;;;-146.70;86.23
7474;BME280;3778;42.572;23.426;2023-03-18T03:21:24;95701.94;;;-146.70;86.58
7474;BME280;3778;42.572;23.426;2023-03-18T03:23:52;95729.03;;;-146.70;86.58
7474;BME280;3778;42.572;23.426;2023-03-18T03:26:19;95712.38;;;-146.70;86.79
7474;BME280;3778;42.572;23.426;2023-03-18T03:28:46;95699.84;;;-146.70;86.98
7474;BME280;3778;42.572;23.426;2023-03-18T03:31:13;95708.19;;;-146.70;87.17
7474;BME280;3778;42.572;23.426;2023-03-18T03:33:41;95751.97;;;-146.70;87.56
7474;BME280;3778;42.572;23.426;2023-03-18T03:36:11;95737.38;;;-146.70;87.61
7474;BME280;3778;42.572;23.426;2023-03-18T03:38:40;95745.72;;;-146.70;87.73
7474;BME280;3778;42.572;23.426;2023-03-18T03:41:08;95735.28;;;-146.70;87.99
7474;BME280;3778;42.572;23.426;2023-03-18T03:43:36;95754.06;;;-146.70;87.80
7474;BME280;3778;42.572;23.426;2023-03-18T03:46:03;95737.38;;;-146.70;87.61
7474;BME280;3778;42.572;23.426;2023-03-18T03:48:30;95718.63;;;-146.70;87.66
7474;BME280;3778;42.572;23.426;2023-03-18T03:50:57;95720.72;;;-146.70;87.65
7474;BME280;3778;42.572;23.426;2023-03-18T03:53:25;95726.97;;;-146.70;87.47
7474;BME280;3778;42.572;23.426;2023-03-18T03:55:54;95726.97;;;-146.70;87.42
7474;BME280;3778;42.572;23.426;2023-03-18T03:58:21;95710.28;;;-146.70;87.30
7474;BME280;3778;42.572;23.426;2023-03-18T04:00:48;95695.69;;;-146.70;87.13
7474;BME280;3778;42.572;23.426;2023-03-18T04:03:15;95710.28;;;-146.70;87.23
7474;BME280;3778;42.572;23.426;2023-03-18T04:05:41;95735.28;;;-146.70;87.15
7474;BME280;3778;42.572;23.426;2023-03-18T04:08:08;95762.41;;;-146.70;86.94
7474;BME280;3778;42.572;23.426;2023-03-18T04:10:35;95718.63;;;-146.70;86.66
7474;BME280;3778;42.572;23.426;2023-03-18T04:13:04;95720.72;;;-146.70;86.71
7474;BME280;3778;42.572;23.426;2023-03-18T04:15:31;95716.53;;;-146.70;86.68
7474;BME280;3778;42.572;23.426;2023-03-18T04:17:57;95726.97;;;-146.70;86.51
7474;BME280;3778;42.572;23.426;2023-03-18T04:20:29;95733.22;;;-146.70;86.60
7474;BME280;3778;42.572;23.426;2023-03-18T04:22:56;95756.13;;;-146.70;86.45
7474;BME280;3778;42.572;23.426;2023-03-18T04:25:22;95737.38;;;-146.70;86.38
7474;BME280;3778;42.572;23.426;2023-03-18T04:27:49;95720.72;;;-146.70;86.46
7474;BME280;3778;42.572;23.426;2023-03-18T04:30:18;95695.69;;;-146.70;86.31
7474;BME280;3778;42.572;23.426;2023-03-18T04:32:47;95712.38;;;-146.70;86.56
7474;BME280;3778;42.572;23.426;2023-03-18T04:35:15;95695.69;;;-146.70;86.38
7474;BME280;3778;42.572;23.426;2023-03-18T04:37:42;95729.03;;;-146.70;86.63
7474;BME280;3778;42.572;23.426;2023-03-18T04:40:10;95762.41;;;-146.70;86.55
7474;BME280;3778;42.572;23.426;2023-03-18T04:42:37;95745.72;;;-146.70;86.62
7474;BME280;3778;42.572;23.426;2023-03-18T04:45:05;95722.78;;;-146.70;86.54
7474;BME280;3778;42.572;23.426;2023-03-18T04:47:33;95708.19;;;-146.70;86.68
7474;BME280;3778;42.572;23.426;2023-03-18T04:50:01;95716.53;;;-146.70;86.93
7474;BME280;3778;42.572;23.426;2023-03-18T04:52:28;95745.72;;;-146.70;86.96
7474;BME280;3778;42.572;23.426;2023-03-18T04:54:55;95699.84;;;-146.70;86.88
7474;BME280;3778;42.572;23.426;2023-03-18T04:57:22;95701.94;;;-146.70;86.93
7474;BME280;3778;42.572;23.426;2023-03-18T04:59:49;95739.47;;;-146.70;86.56
7474;BME280;3778;42.572;23.426;2023-03-18T05:02:16;95743.63;;;-146.70;86.26
7474;BME280;3778;42.572;23.426;2023-03-18T05:04:44;95737.38;;;-146.70;85.99
7474;BME280;3778;42.572;23.426;2023-03-18T05:07:12;95706.13;;;-146.70;85.78
7474;BME280;3778;42.572;23.426;2023-03-18T05:09:40;95733.22;;;-146.70;85.43
7474;BME280;3778;42.572;23.426;2023-03-18T05:12:10;95716.53;;;-146.70;85.40
7474;BME280;3778;42.572;23.426;2023-03-18T05:14:39;95735.28;;;-146.70;85.21
7474;BME280;3778;42.572;23.426;2023-03-18T05:17:06;95712.38;;;-146.70;85.41
7474;BME280;3778;42.572;23.426;2023-03-18T05:19:39;95735.28;;;-146.70;85.24
7474;BME280;3778;42.572;23.426;2023-03-18T05:22:08;95704.03;;;-146.70;84.89
7474;BME280;3778;42.572;23.426;2023-03-18T05:24:34;95751.97;;;-146.70;84.75
7474;BME280;3778;42.572;23.426;2023-03-18T05:27:01;95745.72;;;-146.70;84.63
7474;BME280;3778;42.572;23.426;2023-03-18T05:29:28;95708.19;;;-146.70;84.48
7474;BME280;3778;42.572;23.426;2023-03-18T05:31:54;95701.94;;;-146.70;83.88
7474;BME280;3778;42.572;23.426;2023-03-18T05:34:21;95699.84;;;-146.70;83.02
7474;BME280;3778;42.572;23.426;2023-03-18T05:36:48;95676.94;;;-146.70;82.26
7474;BME280;3778;42.572;23.426;2023-03-18T05:39:16;95681.09;;;-146.70;81.50
7474;BME280;3778;42.572;23.426;2023-03-18T05:41:43;95639.41;;;-146.70;81.40
7474;BME280;3778;42.572;23.426;2023-03-18T05:44:10;95689.44;;;-146.70;81.67
7474;BME280;3778;42.572;23.426;2023-03-18T05:46:36;95689.44;;;-146.70;82.26
7474;BME280;3778;42.572;23.426;2023-03-18T05:49:03;95654.00;;;-146.70;81.77
7474;BME280;3778;42.572;23.426;2023-03-18T05:51:30;95649.84;;;-146.70;82.03
7474;BME280;3778;42.572;23.426;2023-03-18T05:53:56;95699.84;;;-146.70;81.16
7474;BME280;3778;42.572;23.426;2023-03-18T05:56:25;95674.84;;;-146.70;80.28
7474;BME280;3778;42.572;23.426;2023-03-18T05:58:51;95635.25;;;-146.70;80.34
7474;BME280;3778;42.572;23.426;2023-03-18T06:01:18;95681.09;;;-146.70;80.51
7474;BME280;3778;42.572;23.426;2023-03-18T06:03:46;95679.00;;;-146.70;80.40
7474;BME280;3778;42.572;23.426;2023-03-18T06:06:12;95624.81;;;-146.70;80.75
7474;BME280;3778;42.572;23.426;2023-03-18T06:08:39;95662.34;;;-146.70;80.66
7474;BME280;3778;42.572;23.426;2023-03-18T06:11:06;95662.34;;;-146.70;80.28
7474;BME280;3778;42.572;23.426;2023-03-18T06:13:34;95695.69;;;-146.70;80.89
7474;BME280;3778;42.572;23.426;2023-03-18T06:16:01;95658.16;;;-146.70;80.74
7474;BME280;3778;42.572;23.426;2023-03-18T06:18:28;95654.00;;;-146.70;80.42
7474;BME280;3778;42.572;23.426;2023-03-18T06:20:55;95651.91;;;-146.70;80.13
7474;BME280;3778;42.572;23.426;2023-03-18T06:23:22;95745.72;;;-146.70;79.96
7474;BME280;3778;42.572;23.426;2023-03-18T06:25:49;95614.41;;;-146.70;79.63
7474;BME280;3778;42.572;23.426;2023-03-18T06:28:15;95608.16;;;-146.70;79.52
7474;BME280;3778;42.572;23.426;2023-03-18T06:30:44;95616.47;;;-146.70;79.42
7474;BME280;3778;42.572;23.426;2023-03-18T06:33:11;95629.00;;;-146.70;78.86
7474;BME280;3778;42.572;23.426;2023-03-18T06:35:38;95581.03;;;-146.70;78.31
7474;BME280;3778;42.572;23.426;2023-03-18T06:38:05;95616.47;;;-146.70;78.28
7474;BME280;3778;42.572;23.426;2023-03-18T06:40:33;95629.00;;;-146.70;78.33
7474;BME280;3778;42.572;23.426;2023-03-18T06:42:59;95601.88;;;-146.70;78.02
7474;BME280;3778;42.572;23.426;2023-03-18T06:45:26;95583.13;;;-146.70;77.64
7474;BME280;3778;42.572;23.426;2023-03-18T06:47:54;95606.06;;;-146.70;77.74
7474;BME280;3778;42.572;23.426;2023-03-18T06:50:21;95566.44;;;-146.70;77.04
7474;BME280;3778;42.572;23.426;2023-03-18T06:52:48;95572.72;;;-146.70;76.51
7474;BME280;3778;42.572;23.426;2023-03-18T06:55:15;95595.63;;;-146.70;75.78
7474;BME280;3778;42.572;23.426;2023-03-18T06:57:42;95616.47;;;-146.70;75.69
7474;BME280;3778;42.572;23.426;2023-03-18T07:00:11;95522.69;;;-146.70;74.61
7474;BME280;3778;42.572;23.426;2023-03-18T07:02:38;95578.97;;;-146.70;73.95
7474;BME280;3778;42.572;23.426;2023-03-18T07:05:07;95528.94;;;-146.70;73.61
7474;BME280;3778;42.572;23.426;2023-03-18T07:07:34;95533.09;;;-146.70;72.85
7474;BME280;3778;42.572;23.426;2023-03-18T07:10:02;95508.09;;;-146.70;72.68
7474;BME280;3778;42.572;23.426;2023-03-18T07:12:29;95531.00;;;-146.70;72.49
7474;BME280;3778;42.572;23.426;2023-03-18T07:14:56;95466.41;;;-146.70;72.05
7474;BME280;3778;42.572;23.426;2023-03-18T07:17:23;95470.56;;;-146.70;71.49
7474;BME280;3778;42.572;23.426;2023-03-18T07:19:49;95462.22;;;-146.70;71.01
7474;BME280;3778;42.572;23.426;2023-03-18T07:22:18;95439.31;;;-146.70;71.08
7474;BME280;3778;42.572;23.426;2023-03-18T07:24:45;95491.41;;;-146.70;71.09
7474;BME280;3778;42.572;23.426;2023-03-18T07:27:12;95433.06;;;-146.70;70.75
7474;BME280;3778;42.572;23.426;2023-03-18T07:29:39;95424.72;;;-146.70;70.67
7474;BME280;3778;42.572;23.426;2023-03-18T07:32:06;95414.28;;;-146.70;70.23
7474;BME280;3778;42.572;23.426;2023-03-18T07:34:33;95416.38;;;-146.70;69.44
7474;BME280;3778;42.572;23.426;2023-03-18T07:36:59;95408.03;;;-146.70;69.24
7474;BME280;3778;42.572;23.426;2023-03-18T07:39:28;95399.69;;;-146.70;68.35
7474;BME280;3778;42.572;23.426;2023-03-18T07:41:54;95410.13;;;-146.70;67.56
7474;BME280;3778;42.572;23.426;2023-03-18T07:44:21;95428.88;;;-146.70;68.60
7474;BME280;3778;42.572;23.426;2023-03-18T07:46:48;95376.78;;;-146.70;68.35
7474;BME280;3778;42.572;23.426;2023-03-18T07:49:14;95335.09;;;-146.70;65.97
7474;BME280;3778;42.572;23.426;2023-03-18T07:51:41;95408.03;;;-146.70;65.51
7474;BME280;3778;42.572;23.426;2023-03-18T07:54:08;95316.31;;;-146.70;65.95
7474;BME280;3778;42.572;23.426;2023-03-18T07:56:36;95368.44;;;-146.70;66.85
7474;BME280;3778;42.572;23.426;2023-03-18T07:59:04;95393.44;;;-146.70;66.51
7474;BME280;3778;42.572;23.426;2023-03-18T08:01:30;95399.69;;;-146.70;66.27
7474;BME280;3778;42.572;23.426;2023-03-18T08:03:57;95345.50;;;-146.70;66.20
7474;BME280;3778;42.572;23.426;2023-03-18T08:06:24;95370.53;;;-146.70;65.97
7474;BME280;3778;42.572;23.426;2023-03-18T08:08:50;95299.66;;;-146.70;64.52
7474;BME280;3778;42.572;23.426;2023-03-18T08:11:17;95312.16;;;-146.70;64.83
7474;BME280;3778;42.572;23.426;2023-03-18T08:13:45;95295.47;;;-146.70;63.24
7474;BME280;3778;42.572;23.426;2023-03-18T08:16:12;95312.16;;;-146.70;63.79
7474;BME280;3778;42.572;23.426;2023-03-18T08:18:39;95308.00;;;-146.70;63.10
7474;BME280;3778;42.572;23.426;2023-03-18T08:21:07;95328.84;;;-146.70;63.29
7474;BME280;3778;42.572;23.426;2023-03-18T08:23:33;95285.06;;;-146.70;63.60
7474;BME280;3778;42.572;23.426;2023-03-18T08:26:01;95299.66;;;-146.70;63.29
7474;BME280;3778;42.572;23.426;2023-03-18T08:28:28;95333.00;;;-146.70;63.02
7474;BME280;3778;42.572;23.426;2023-03-18T08:30:57;95289.22;;;-146.70;64.11
7474;BME280;3778;42.572;23.426;2023-03-18T08:33:25;95308.00;;;-146.70;62.70
7474;BME280;3778;42.572;23.426;2023-03-18T08:35:53;95287.16;;;-146.70;62.75
7474;BME280;3778;42.572;23.426;2023-03-18T08:38:20;95278.81;;;-146.70;62.05
7474;BME280;3778;42.572;23.426;2023-03-18T08:40:48;95255.88;;;-146.70;62.13
7474;BME280;3778;42.572;23.426;2023-03-18T08:43:14;95280.91;;;-146.70;61.82
7474;BME280;3778;42.572;23.426;2023-03-18T08:45:42;95216.28;;;-146.70;62.37
7474;BME280;3778;42.572;23.426;2023-03-18T08:48:10;95247.53;;;-146.70;61.97
7474;BME280;3778;42.572;23.426;2023-03-18T08:50:37;95237.13;;;-146.70;61.73
7474;BME280;3778;42.572;23.426;2023-03-18T08:53:04;95191.28;;;-146.70;62.25
7474;BME280;3778;42.572;23.426;2023-03-18T08:55:32;95260.06;;;-146.70;61.76
7474;BME280;3778;42.572;23.426;2023-03-18T08:58:00;95241.28;;;-146.70;60.91
7474;BME280;3778;42.572;23.426;2023-03-18T09:00:26;95262.13;;;-146.70;61.47
7474;BME280;3778;42.572;23.426;2023-03-18T09:02:53;95199.59;;;-146.70;61.47
7474;BME280;3778;42.572;23.426;2023-03-18T09:05:22;95212.13;;;-146.70;61.29
7474;BME280;3778;42.572;23.426;2023-03-18T09:07:49;95193.34;;;-146.70;60.98
7474;BME280;3778;42.572;23.426;2023-03-18T09:10:16;95264.22;;;-146.70;62.07
7474;BME280;3778;42.572;23.426;2023-03-18T09:12:44;95205.84;;;-146.70;61.87
7474;BME280;3778;42.572;23.426;2023-03-18T09:15:13;95151.66;;;-146.70;62.00
7474;BME280;3778;42.572;23.426;2023-03-18T09:17:40;95149.59;;;-146.70;61.45
7474;BME280;3778;42.572;23.426;2023-03-18T09:20:09;95145.41;;;-146.70;58.90
7474;BME280;3778;42.572;23.426;2023-03-18T09:22:39;95151.66;;;-146.70;57.93
7474;BME280;3778;42.572;23.426;2023-03-18T09:25:07;95232.97;;;-146.70;58.52
7474;BME280;3778;42.572;23.426;2023-03-18T09:27:34;95214.19;;;-146.70;59.48
7474;BME280;3778;42.572;23.426;2023-03-18T09:30:01;95203.78;;;-146.70;59.59
7474;BME280;3778;42.572;23.426;2023-03-18T09:32:29;95189.19;;;-146.70;60.14
7474;BME280;3778;42.572;23.426;2023-03-18T09:34:56;95203.78;;;-146.70;57.81
7474;BME280;3778;42.572;23.426;2023-03-18T09:37:23;95176.69;;;-146.70;54.06
7474;BME280;3778;42.572;23.426;2023-03-18T09:39:51;95141.25;;;-146.70;49.28
7474;BME280;3778;42.572;23.426;2023-03-18T09:42:30;95128.75;;;-146.70;50.00
7474;BME280;3778;42.572;23.426;2023-03-18T09:45:07;95126.66;;;-146.70;48.86
7474;BME280;3778;42.572;23.426;2023-03-18T09:47:48;95105.81;;;-146.70;49.55
7474;BME280;3778;42.572;23.426;2023-03-18T09:50:26;95059.97;;;-146.70;47.35
7474;BME280;3778;42.572;23.426;2023-03-18T09:53:04;95216.28;;;-146.70;49.53
7474;BME280;3778;42.572;23.426;2023-03-18T09:55:40;95037.03;;;-146.70;46.52
7474;BME280;3778;42.572;23.426;2023-03-18T09:58:19;95014.13;;;-146.70;44.44
7474;BME280;3778;42.572;23.426;2023-03-18T10:00:47;95016.19;;;-146.70;46.27
7474;BME280;3778;42.572;23.426;2023-03-18T10:03:24;94953.66;;;-146.70;45.91
7474;BME280;3778;42.572;23.426;2023-03-18T10:05:56;95043.28;;;-146.70;45.81
7474;BME280;3778;42.572;23.426;2023-03-18T10:08:37;94943.25;;;-146.70;46.40
7474;BME280;3778;42.572;23.426;2023-03-18T10:11:15;94945.34;;;-146.70;45.58
7474;BME280;3778;42.572;23.426;2023-03-18T10:13:47;94876.56;;;-146.70;44.24
7474;BME280;3778;42.572;23.426;2023-03-18T10:16:24;94951.59;;;-146.70;43.53
7474;BME280;3778;42.572;23.426;2023-03-18T10:18:53;95070.38;;;-146.70;44.67
7474;BME280;3778;42.572;23.426;2023-03-18T10:21:28;95037.03;;;-146.70;46.22
7474;BME280;3778;42.572;23.426;2023-03-18T10:24:03;95080.81;;;-146.70;44.88
7474;BME280;3778;42.572;23.426;2023-03-18T10:26:39;95016.19;;;-146.70;45.38
7474;BME280;3778;42.572;23.426;2023-03-18T10:32:02;94991.19;;;-146.70;44.53
7474;BME280;3778;42.572;23.426;2023-03-18T10:34:39;94943.25;;;-146.70;43.68
7474;BME280;3778;42.572;23.426;2023-03-18T10:37:13;94891.16;;;-146.70;43.30
7474;BME280;3778;42.572;23.426;2023-03-18T10:39:43;94886.97;;;-146.70;43.54
7474;BME280;3778;42.572;23.426;2023-03-18T10:42:19;94926.56;;;-146.70;42.86
7474;BME280;3778;42.572;23.426;2023-03-18T10:44:46;94880.72;;;-146.70;44.23
7474;BME280;3778;42.572;23.426;2023-03-18T10:47:17;94901.56;;;-146.70;43.87
7474;BME280;3778;42.572;23.426;2023-03-18T10:49:48;94957.84;;;-146.70;46.28
7474;BME280;3778;42.572;23.426;2023-03-18T10:52:28;95026.63;;;-146.70;46.80
7474;BME280;3778;42.572;23.426;2023-03-18T10:54:57;95037.03;;;-146.70;46.97
7474;BME280;3778;42.572;23.426;2023-03-18T10:57:25;95005.78;;;-146.70;46.58
7474;BME280;3778;42.572;23.426;2023-03-18T10:59:52;95016.19;;;-146.70;47.12
7474;BME280;3778;42.572;23.426;2023-03-18T11:02:24;95041.22;;;-146.70;45.67
7474;BME280;3778;42.572;23.426;2023-03-18T11:04:55;95022.44;;;-146.70;45.68
7474;BME280;3778;42.572;23.426;2023-03-18T11:07:24;95062.03;;;-146.70;44.34
7474;BME280;3778;42.572;23.426;2023-03-18T11:09:52;95062.03;;;-146.70;43.50
7474;BME280;3778;42.572;23.426;2023-03-18T11:12:23;94999.53;;;-146.70;43.37
7474;BME280;3778;42.572;23.426;2023-03-18T11:14:53;95087.06;;;-146.70;43.84
7474;BME280;3778;42.572;23.426;2023-03-18T11:17:24;95043.28;;;-146.70;43.92
7474;BME280;3778;42.572;23.426;2023-03-18T11:20:00;94937.00;;;-146.70;45.61
7474;BME280;3778;42.572;23.426;2023-03-18T11:22:31;94924.50;;;-146.70;42.00
7474;BME280;3778;42.572;23.426;2023-03-18T11:25:01;94907.81;;;-146.70;41.25
7474;BME280;3778;42.572;23.426;2023-03-18T11:27:37;94861.97;;;-146.70;41.41
7474;BME280;3778;42.572;23.426;2023-03-18T11:30:12;94909.91;;;-146.70;41.68
7474;BME280;3778;42.572;23.426;2023-03-18T11:32:50;94941.16;;;-146.70;41.42
7474;BME280;3778;42.572;23.426;2023-03-18T11:35:19;94891.16;;;-146.70;40.63
7474;BME280;3778;42.572;23.426;2023-03-18T11:37:46;94918.25;;;-146.70;41.04
7474;BME280;3778;42.572;23.426;2023-03-18T11:40:21;94893.22;;;-146.70;39.75
7474;BME280;3778;42.572;23.426;2023-03-18T11:42:54;94970.34;;;-146.70;40.39
7474;BME280;3778;42.572;23.426;2023-03-18T11:45:44;94857.81;;;-146.70;42.43
7474;BME280;3778;42.572;23.426;2023-03-18T11:48:19;94861.97;;;-146.70;40.41
7474;BME280;3778;42.572;23.426;2023-03-18T11:53:46;94886.97;;;-146.70;39.54
7474;BME280;3778;42.572;23.426;2023-03-18T11:56:22;94897.41;;;-146.70;40.38
7474;BME280;3778;42.572;23.426;2023-03-18T11:59:04;94811.94;;;-146.70;39.94
7474;BME280;3778;42.572;23.426;2023-03-18T12:01:41;94907.81;;;-146.70;40.61
7474;BME280;3778;42.572;23.426;2023-03-18T12:04:21;94924.50;;;-146.70;40.63
7474;BME280;3778;42.572;23.426;2023-03-18T12:07:02;94995.34;;;-146.70;41.47
7474;BME280;3778;42.572;23.426;2023-03-18T12:09:36;94964.09;;;-146.70;42.03
7474;BME280;3778;42.572;23.426;2023-03-18T12:12:20;94982.84;;;-146.70;41.76
7474;BME280;3778;42.572;23.426;2023-03-18T12:14:56;94974.50;;;-146.70;41.57
7474;BME280;3778;42.572;23.426;2023-03-18T12:17:33;94947.41;;;-146.70;41.89
7474;BME280;3778;42.572;23.426;2023-03-18T12:20:30;94953.66;;;-146.70;41.73
7474;BME280;3778;42.572;23.426;2023-03-18T12:23:03;94962.00;;;-146.70;41.04
7474;BME280;3778;42.572;23.426;2023-03-18T12:25:45;94987.03;;;-146.70;41.49
7474;BME280;3778;42.572;23.426;2023-03-18T12:28:27;94991.19;;;-146.70;41.29
7474;BME280;3778;42.572;23.426;2023-03-18T12:31:23;94991.19;;;-146.70;41.18
7474;BME280;3778;42.572;23.426;2023-03-18T12:33:57;94886.97;;;-146.70;40.09
7474;BME280;3778;42.572;23.426;2023-03-18T12:36:32;94830.72;;;-146.70;39.01
7474;BME280;3778;42.572;23.426;2023-03-18T12:42:16;94803.63;;;-146.70;39.33
7474;BME280;3778;42.572;23.426;2023-03-18T12:44:50;94816.13;;;-146.70;39.16
7474;BME280;3778;42.572;23.426;2023-03-18T12:47:24;94832.78;;;-146.70;39.82
7474;BME280;3778;42.572;23.426;2023-03-18T12:49:57;94874.47;;;-146.70;39.46
7474;BME280;3778;42.572;23.426;2023-03-18T12:52:28;94899.47;;;-146.70;39.14
7474;BME280;3778;42.572;23.426;2023-03-18T12:55:00;94874.47;;;-146.70;39.23
7474;BME280;3778;42.572;23.426;2023-03-18T12:57:35;94893.22;;;-146.70;39.57
7474;BME280;3778;42.572;23.426;2023-03-18T13:00:12;94782.78;;;-146.70;41.45
7474;BME280;3778;42.572;23.426;2023-03-18T13:02:47;94595.22;;;-146.70;37.36
7474;BME280;3778;42.572;23.426;2023-03-18T13:05:22;94551.47;;;-146.70;35.46
7474;BME280;3778;42.572;23.426;2023-03-18T13:08:04;94722.34;;;-146.70;36.22
7474;BME280;3778;42.572;23.426;2023-03-18T13:10:36;94728.59;;;-146.70;38.19